createdAt,value
2023-04-18T00:00:44.120Z,14.40
2023-04-18T00:03:16.247Z,14.40
2023-04-18T00:05:48.219Z,14.40
2023-04-18T00:08:18.954Z,14.40
2023-04-18T00:10:48.616Z,14.30
2023-04-18T00:13:18.608Z,14.30
2023-04-18T00:15:47.975Z,14.30
2023-04-18T00:18:17.474Z,14.30
2023-04-18T00:20:47.176Z,14.30
2023-04-18T00:23:17.729Z,14.30
2023-04-18T00:25:46.703Z,14.20
2023-04-18T00:28:15.761Z,14.10
2023-04-18T00:30:44.761Z,14.10
2023-04-18T00:33:13.774Z,14.10
2023-04-18T00:35:42.928Z,14.00
2023-04-18T00:38:11.903Z,14.00
2023-04-18T00:40:44.335Z,14.00
2023-04-18T00:43:15.551Z,14.00
2023-04-18T00:45:44.810Z,13.90
2023-04-18T00:48:13.920Z,13.90
2023-04-18T00:50:43.132Z,13.90
2023-04-18T00:53:12.411Z,13.90
2023-04-18T00:55:41.796Z,13.80
2023-04-18T00:58:14.074Z,13.80
2023-04-18T01:00:44.008Z,13.80
2023-04-18T01:03:15.749Z,13.70
2023-04-18T01:05:45.260Z,13.70
2023-04-18T01:08:14.322Z,13.70
2023-04-18T01:10:43.862Z,13.70
2023-04-18T01:13:16.140Z,13.70
2023-04-18T01:15:46.160Z,13.70
2023-04-18T01:18:18.021Z,13.60
2023-04-18T01:20:49.908Z,13.60
2023-04-18T01:23:21.841Z,13.60
2023-04-18T01:25:52.426Z,13.60
2023-04-18T01:28:23.028Z,13.50
2023-04-18T01:30:52.317Z,13.50
2023-04-18T01:33:21.288Z,13.50
2023-04-18T01:35:57.643Z,13.40
2023-04-18T01:38:52.713Z,13.40
2023-04-18T01:41:25.835Z,13.40
2023-04-18T01:43:55.122Z,13.40
2023-04-18T01:46:24.155Z,13.40
2023-04-18T01:48:53.264Z,13.40
2023-04-18T01:51:23.270Z,13.40
2023-04-18T01:53:52.454Z,13.40
2023-04-18T01:56:21.447Z,13.30
2023-04-18T01:58:51.837Z,13.30
2023-04-18T02:01:20.959Z,13.30
2023-04-18T02:03:50.238Z,13.30
2023-04-18T02:06:19.419Z,13.30
2023-04-18T02:09:01.446Z,13.30
2023-04-18T02:11:31.785Z,13.30
2023-04-18T02:14:02.351Z,13.20
2023-04-18T02:16:31.547Z,13.20
2023-04-18T02:19:00.484Z,13.20
2023-04-18T02:21:30.607Z,13.20
2023-04-18T02:23:59.690Z,13.20
2023-04-18T02:26:28.669Z,13.20
2023-04-18T02:29:00.124Z,13.10
2023-04-18T02:31:33.925Z,13.10
2023-04-18T02:34:21.330Z,13.10
2023-04-18T02:36:50.505Z,13.10
2023-04-18T02:39:19.611Z,13.00
2023-04-18T02:41:48.596Z,13.00
2023-04-18T02:44:17.935Z,13.00
2023-04-18T02:46:48.704Z,13.00
2023-04-18T02:49:18.152Z,13.00
2023-04-18T02:51:47.166Z,13.00
2023-04-18T02:54:17.038Z,13.00
2023-04-18T02:56:57.496Z,13.00
2023-04-18T02:59:52.616Z,13.00
2023-04-18T03:02:42.042Z,12.90
2023-04-18T03:05:30.125Z,12.90
2023-04-18T03:08:02.378Z,12.90
2023-04-18T03:10:32.222Z,12.90
2023-04-18T03:13:02.178Z,12.90
2023-04-18T03:15:32.513Z,12.90
2023-04-18T03:18:03.509Z,12.90
2023-04-18T03:20:36.047Z,12.90
2023-04-18T03:23:05.564Z,12.90
2023-04-18T03:25:34.645Z,13.00
2023-04-18T03:28:04.932Z,13.00
2023-04-18T03:30:35.363Z,13.00
2023-04-18T03:33:24.907Z,13.00
2023-04-18T03:36:06.865Z,13.00
2023-04-18T03:38:54.415Z,13.00
2023-04-18T03:41:23.972Z,13.10
2023-04-18T03:43:53.073Z,13.10
2023-04-18T03:46:25.784Z,13.10
2023-04-18T03:48:59.790Z,13.10
2023-04-18T03:51:31.626Z,13.10
2023-04-18T03:54:01.539Z,13.10
2023-04-18T03:56:31.479Z,13.00
2023-04-18T03:59:01.588Z,13.00
2023-04-18T04:01:33.331Z,13.00
2023-04-18T04:04:22.843Z,13.00
2023-04-18T04:06:53.139Z,13.00
2023-04-18T04:09:22.402Z,13.00
2023-04-18T04:11:52.243Z,13.00
2023-04-18T04:14:21.811Z,13.10
2023-04-18T04:16:51.167Z,13.10
2023-04-18T04:19:21.717Z,13.10
2023-04-18T04:22:09.552Z,13.10
2023-04-18T04:24:39.820Z,13.20
2023-04-18T04:27:10.641Z,13.20
2023-04-18T04:29:40.306Z,13.30
2023-04-18T04:32:09.786Z,13.30
2023-04-18T04:34:42.852Z,13.30
2023-04-18T04:37:18.900Z,13.30
2023-04-18T04:40:16.158Z,13.40
2023-04-18T04:42:54.192Z,13.40
2023-04-18T04:45:33.363Z,13.40
2023-04-18T04:48:02.505Z,13.40
2023-04-18T04:50:38.176Z,13.40
2023-04-18T04:53:12.450Z,13.40
2023-04-18T04:55:41.840Z,13.40
2023-04-18T04:58:10.785Z,13.40
2023-04-18T05:01:03.640Z,13.30
2023-04-18T05:03:34.546Z,13.30
2023-04-18T05:06:07.462Z,13.20
2023-04-18T05:08:41.085Z,13.20
2023-04-18T05:11:10.125Z,13.20
2023-04-18T05:13:39.118Z,13.20
2023-04-18T05:16:08.313Z,13.20
2023-04-18T05:18:39.348Z,13.20
2023-04-18T05:21:09.982Z,13.20
2023-04-18T05:23:38.962Z,13.20
2023-04-18T05:26:08.095Z,13.30
2023-04-18T05:28:37.160Z,13.30
2023-04-18T05:31:06.744Z,13.40
2023-04-18T05:33:35.798Z,13.40
2023-04-18T05:36:10.291Z,13.40
2023-04-18T05:38:41.899Z,13.40
2023-04-18T05:41:11.182Z,13.50
2023-04-18T05:43:40.188Z,13.50
2023-04-18T05:46:10.425Z,13.60
2023-04-18T05:48:39.480Z,13.70
2023-04-18T05:51:10.023Z,13.70
2023-04-18T05:53:41.979Z,13.70
2023-04-18T05:56:11.070Z,13.80
2023-04-18T05:58:40.001Z,13.80
2023-04-18T06:01:09.133Z,13.80
2023-04-18T06:03:38.396Z,13.80
2023-04-18T06:06:07.874Z,13.80
2023-04-18T06:08:36.828Z,13.90
2023-04-18T06:11:08.010Z,13.90
2023-04-18T06:13:37.661Z,13.90
2023-04-18T06:16:07.992Z,14.00
2023-04-18T06:18:37.056Z,14.00
2023-04-18T06:21:06.279Z,14.00
2023-04-18T06:23:35.258Z,14.00
2023-04-18T06:26:04.724Z,14.00
2023-04-18T06:28:35.349Z,14.00
2023-04-18T06:31:04.497Z,14.00
2023-04-18T06:33:35.881Z,14.00
2023-04-18T06:36:05.097Z,14.10
2023-04-18T06:38:34.224Z,14.10
2023-04-18T06:41:03.220Z,14.10
2023-04-18T06:43:32.452Z,14.10
2023-04-18T06:46:09.871Z,14.10
2023-04-18T06:48:39.093Z,14.10
2023-04-18T06:51:08.350Z,14.20
2023-04-18T06:53:37.308Z,14.20
2023-04-18T06:56:06.987Z,14.30
2023-04-18T06:58:36.364Z,14.40
2023-04-18T07:01:07.670Z,14.40
2023-04-18T07:03:36.761Z,14.50
2023-04-18T07:06:09.099Z,14.50
2023-04-18T07:08:38.470Z,14.60
2023-04-18T07:11:07.777Z,14.60
2023-04-18T07:13:36.863Z,14.70
2023-04-18T07:16:08.051Z,14.80
2023-04-18T07:18:55.408Z,14.90
2023-04-18T07:21:24.355Z,15.00
2023-04-18T07:23:53.466Z,15.10
2023-04-18T07:26:22.546Z,15.20
2023-04-18T07:28:51.607Z,15.20
2023-04-18T07:31:22.254Z,15.40
2023-04-18T07:33:51.349Z,15.50
2023-04-18T07:36:20.415Z,15.70
2023-04-18T07:38:49.546Z,15.90
2023-04-18T07:41:18.654Z,16.10
2023-04-18T07:43:47.596Z,16.30
2023-04-18T07:46:16.921Z,16.50
2023-04-18T07:48:47.667Z,16.60
2023-04-18T07:51:16.820Z,16.70
2023-04-18T07:53:45.759Z,16.80
2023-04-18T07:56:15.201Z,17.00
2023-04-18T07:59:03.144Z,17.10
2023-04-18T08:01:32.364Z,17.30
2023-04-18T08:04:03.187Z,17.40
2023-04-18T08:06:32.400Z,17.50
2023-04-18T08:09:04.568Z,17.60
2023-04-18T08:11:35.139Z,17.80
2023-04-18T08:14:04.428Z,18.00
2023-04-18T08:16:33.429Z,18.10
2023-04-18T08:19:11.480Z,18.30
2023-04-18T08:21:49.107Z,18.50
2023-04-18T08:24:19.410Z,18.70
2023-04-18T08:26:48.467Z,18.80
2023-04-18T08:29:17.531Z,19.00
2023-04-18T08:31:46.644Z,19.10
2023-04-18T08:34:22.264Z,19.20
2023-04-18T08:36:52.274Z,19.30
2023-04-18T08:39:22.305Z,19.30
2023-04-18T08:42:00.248Z,19.30
2023-04-18T08:44:30.155Z,19.40
2023-04-18T08:47:02.018Z,19.40
2023-04-18T08:49:40.231Z,19.60
2023-04-18T08:52:19.560Z,19.80
2023-04-18T08:54:52.401Z,19.90
2023-04-18T08:57:30.325Z,20.00
2023-04-18T09:00:05.200Z,20.10
2023-04-18T09:02:43.120Z,20.10
2023-04-18T09:05:20.610Z,20.20
2023-04-18T09:07:51.084Z,20.20
2023-04-18T09:10:28.994Z,20.30
2023-04-18T09:12:58.915Z,20.50
2023-04-18T09:15:29.436Z,20.70
2023-04-18T09:18:00.127Z,20.90
2023-04-18T09:20:36.027Z,21.10
2023-04-18T09:23:06.322Z,21.30
2023-04-18T09:25:40.089Z,21.40
2023-04-18T09:28:29.792Z,21.60
2023-04-18T09:31:00.381Z,21.80
2023-04-18T09:33:37.318Z,22.00
2023-04-18T09:36:22.869Z,22.00
2023-04-18T09:38:56.904Z,22.10
2023-04-18T09:41:27.238Z,22.00
2023-04-18T09:44:14.934Z,22.00
2023-04-18T09:46:47.126Z,21.90
2023-04-18T09:49:17.326Z,21.90
2023-04-18T09:51:48.379Z,22.00
2023-04-18T09:54:40.771Z,22.00
2023-04-18T09:57:13.098Z,21.80
2023-04-18T09:59:48.031Z,21.60
2023-04-18T10:02:22.274Z,21.30
2023-04-18T10:04:52.787Z,21.10
2023-04-18T10:07:23.957Z,20.80
2023-04-18T10:09:53.574Z,20.60
2023-04-18T10:12:22.798Z,20.40
2023-04-18T10:14:52.381Z,20.20
2023-04-18T10:17:22.553Z,20.10
2023-04-18T10:20:08.198Z,20.10
2023-04-18T10:22:38.874Z,20.00
2023-04-18T10:25:09.018Z,20.00
2023-04-18T10:28:01.936Z,20.00
2023-04-18T10:30:56.656Z,19.90
2023-04-18T10:33:33.820Z,20.00
2023-04-18T10:36:06.486Z,20.00
2023-04-18T10:38:38.979Z,20.00
2023-04-18T10:41:26.137Z,20.00
2023-04-18T10:44:22.737Z,20.00
2023-04-18T10:47:20.476Z,20.00
2023-04-18T10:50:08.828Z,20.00
2023-04-18T10:52:37.826Z,20.00
2023-04-18T10:55:20.148Z,19.90
2023-04-18T10:57:50.767Z,19.80
2023-04-18T11:00:22.068Z,19.70
2023-04-18T11:02:54.036Z,19.60
2023-04-18T11:05:25.311Z,19.60
2023-04-18T11:07:54.900Z,19.50
2023-04-18T11:10:27.031Z,19.50
2023-04-18T11:12:56.722Z,19.40
2023-04-18T11:15:28.596Z,19.40
2023-04-18T11:18:01.821Z,19.40
2023-04-18T11:20:32.725Z,19.20
2023-04-18T11:23:02.457Z,19.20
2023-04-18T11:25:36.634Z,18.90
2023-04-18T11:28:06.272Z,18.90
2023-04-18T11:30:39.800Z,18.70
2023-04-18T11:33:09.770Z,18.40
2023-04-18T11:35:40.169Z,18.10
2023-04-18T11:38:10.593Z,17.90
2023-04-18T11:40:48.323Z,17.70
2023-04-18T11:43:22.331Z,17.50
2023-04-18T11:46:09.905Z,17.30
2023-04-18T11:48:39.759Z,17.10
2023-04-18T11:51:36.082Z,17.00
2023-04-18T11:54:05.446Z,16.80
2023-04-18T11:56:36.900Z,16.70
2023-04-18T11:59:10.752Z,16.60
2023-04-18T12:01:39.860Z,16.40
2023-04-18T12:04:09.881Z,16.40
2023-04-18T12:06:57.163Z,16.30
2023-04-18T12:09:26.627Z,16.20
2023-04-18T12:12:01.844Z,16.10
2023-04-18T12:14:31.888Z,16.10
2023-04-18T12:17:04.766Z,16.10
2023-04-18T12:19:34.605Z,16.20
2023-04-18T12:22:05.529Z,16.30
2023-04-18T12:24:36.315Z,16.40
2023-04-18T12:27:06.868Z,16.40
2023-04-18T12:29:35.920Z,16.50
2023-04-18T12:32:04.882Z,16.50
2023-04-18T12:34:34.528Z,16.50
2023-04-18T12:37:05.130Z,16.50
2023-04-18T12:39:34.201Z,16.50
2023-04-18T12:42:03.383Z,16.50
2023-04-18T12:44:33.926Z,16.60
2023-04-18T12:47:03.500Z,16.60
2023-04-18T12:49:34.260Z,16.70
2023-04-18T12:52:03.287Z,16.80
2023-04-18T12:54:32.531Z,16.80
2023-04-18T12:57:01.988Z,16.90
2023-04-18T12:59:32.568Z,16.90
2023-04-18T13:02:01.894Z,16.90
2023-04-18T13:04:31.570Z,16.80
2023-04-18T13:07:01.418Z,16.80
2023-04-18T13:09:30.449Z,16.80
2023-04-18T13:11:59.394Z,16.90
2023-04-18T13:14:28.748Z,16.90
2023-04-18T13:16:59.389Z,17.00
2023-04-18T13:19:28.519Z,17.00
2023-04-18T13:21:57.563Z,17.00
2023-04-18T13:24:26.761Z,17.00
2023-04-18T13:27:14.481Z,17.00
2023-04-18T13:29:44.964Z,17.00
2023-04-18T13:32:15.862Z,17.00
2023-04-18T13:34:46.534Z,17.00
2023-04-18T13:37:16.379Z,17.00
2023-04-18T13:39:48.636Z,17.00
2023-04-18T13:42:19.420Z,17.00
2023-04-18T13:44:48.719Z,17.10
2023-04-18T13:47:19.272Z,17.10
2023-04-18T13:49:48.503Z,17.10
2023-04-18T13:52:17.702Z,17.20
2023-04-18T13:54:50.438Z,17.30
2023-04-18T13:57:19.545Z,17.50
2023-04-18T13:59:48.542Z,17.60
2023-04-18T14:02:19.163Z,17.70
2023-04-18T14:04:48.401Z,17.90
2023-04-18T14:07:17.956Z,17.90
2023-04-18T14:09:48.396Z,18.10
2023-04-18T14:12:17.387Z,18.10
2023-04-18T14:14:46.699Z,18.30
2023-04-18T14:17:15.662Z,18.40
2023-04-18T14:19:46.228Z,18.40
2023-04-18T14:22:15.380Z,18.50
2023-04-18T14:24:44.595Z,18.50
2023-04-18T14:27:13.862Z,18.50
2023-04-18T14:29:42.834Z,18.50
2023-04-18T14:32:12.520Z,18.50
2023-04-18T14:34:42.970Z,18.60
2023-04-18T14:37:14.615Z,18.60
2023-04-18T14:39:44.816Z,18.70
2023-04-18T14:42:13.754Z,18.70
2023-04-18T14:44:42.990Z,18.80
2023-04-18T14:47:12.250Z,18.80
2023-04-18T14:49:41.490Z,18.90
2023-04-18T14:52:10.474Z,18.90
2023-04-18T14:54:41.222Z,18.80
2023-04-18T14:57:10.380Z,18.80
2023-04-18T14:59:39.315Z,18.80
2023-04-18T15:02:08.573Z,18.70
2023-04-18T15:04:37.695Z,18.70
2023-04-18T15:07:07.948Z,18.60
2023-04-18T15:09:38.278Z,18.50
2023-04-18T15:12:09.310Z,18.50
2023-04-18T15:14:38.376Z,18.50
2023-04-18T15:17:07.497Z,18.40
2023-04-18T15:19:36.893Z,18.40
2023-04-18T15:22:05.918Z,18.40
2023-04-18T15:24:34.975Z,18.40
2023-04-18T15:27:04.554Z,18.30
2023-04-18T15:29:35.065Z,18.30
2023-04-18T15:32:05.282Z,18.30
2023-04-18T15:34:34.383Z,18.20
2023-04-18T15:37:04.715Z,18.20
2023-04-18T15:39:33.756Z,18.10
2023-04-18T15:42:03.047Z,18.30
2023-04-18T15:44:33.651Z,18.00
2023-04-18T15:47:02.655Z,17.90
2023-04-18T15:49:32.210Z,17.90
2023-04-18T15:52:01.111Z,17.90
2023-04-18T15:54:30.132Z,17.80
2023-04-18T15:56:59.645Z,17.70
2023-04-18T15:59:28.660Z,17.90
2023-04-18T16:01:59.471Z,17.60
2023-04-18T16:04:29.428Z,17.50
2023-04-18T16:06:59.346Z,17.40
2023-04-18T16:09:28.447Z,17.30
2023-04-18T16:11:57.916Z,17.20
2023-04-18T16:14:27.788Z,17.20
2023-04-18T16:16:57.780Z,17.10
2023-04-18T16:19:28.450Z,17.10
2023-04-18T16:21:57.499Z,17.00
2023-04-18T16:24:26.848Z,17.10
2023-04-18T16:26:56.933Z,17.10
2023-04-18T16:29:26.109Z,17.00
2023-04-18T16:31:55.214Z,17.10
2023-04-18T16:34:24.151Z,17.00
2023-04-18T16:36:55.650Z,17.00
2023-04-18T16:39:24.869Z,17.00
2023-04-18T16:41:53.837Z,17.00
2023-04-18T16:44:22.899Z,16.90
2023-04-18T16:46:51.874Z,16.80
2023-04-18T16:49:20.843Z,16.80
2023-04-18T16:51:50.191Z,16.70
2023-04-18T16:54:20.664Z,16.50
2023-04-18T16:56:49.658Z,16.40
2023-04-18T16:59:18.693Z,16.30
2023-04-18T17:01:47.725Z,16.20
2023-04-18T17:04:17.463Z,16.10
2023-04-18T17:06:48.834Z,16.00
2023-04-18T17:09:20.401Z,15.90
2023-04-18T17:11:49.478Z,15.80
2023-04-18T17:14:18.490Z,15.80
2023-04-18T17:16:48.473Z,15.70
2023-04-18T17:19:22.442Z,15.70
2023-04-18T17:21:53.946Z,15.60
2023-04-18T17:24:25.877Z,15.60
2023-04-18T17:26:57.894Z,15.50
2023-04-18T17:29:26.957Z,15.40
2023-04-18T17:31:56.217Z,15.30
2023-04-18T17:34:26.156Z,15.20
2023-04-18T17:36:55.234Z,15.10
2023-04-18T17:39:26.056Z,15.10
2023-04-18T17:41:55.701Z,15.10
2023-04-18T17:44:25.353Z,15.00
2023-04-18T17:46:54.853Z,15.00
2023-04-18T17:49:24.153Z,15.00
2023-04-18T17:51:53.940Z,14.90
2023-04-18T17:54:24.715Z,14.90
2023-04-18T17:56:54.630Z,14.90
2023-04-18T17:59:24.013Z,14.80
2023-04-18T18:01:53.590Z,14.80
2023-04-18T18:04:25.775Z,14.80
2023-04-18T18:06:57.023Z,14.80
2023-04-18T18:09:27.917Z,14.80
2023-04-18T18:12:00.470Z,14.70
2023-04-18T18:14:29.898Z,14.80
2023-04-18T18:16:59.179Z,14.80
2023-04-18T18:19:28.421Z,14.80
2023-04-18T18:21:57.408Z,14.80
2023-04-18T18:24:27.876Z,14.80
2023-04-18T18:26:57.062Z,14.70
2023-04-18T18:29:26.276Z,14.70
2023-04-18T18:31:55.417Z,14.80
2023-04-18T18:34:24.406Z,14.80
2023-04-18T18:36:53.747Z,14.80
2023-04-18T18:39:22.709Z,14.80
2023-04-18T18:41:53.513Z,14.80
2023-04-18T18:44:22.703Z,14.80
2023-04-18T18:46:51.877Z,14.80
2023-04-18T18:49:21.424Z,14.80
2023-04-18T18:51:50.638Z,14.70
2023-04-18T18:54:19.603Z,14.70
2023-04-18T18:56:48.615Z,14.70
2023-04-18T18:59:19.262Z,14.70
2023-04-18T19:01:48.426Z,14.70
2023-04-18T19:04:18.571Z,14.70
2023-04-18T19:06:47.796Z,14.70
2023-04-18T19:09:16.710Z,14.70
2023-04-18T19:11:45.629Z,14.70
2023-04-18T19:14:14.983Z,14.70
2023-04-18T19:16:45.458Z,14.70
2023-04-18T19:19:15.014Z,14.70
2023-04-18T19:21:46.139Z,14.70
2023-04-18T19:24:15.258Z,14.70
2023-04-18T19:26:44.447Z,14.70
2023-04-18T19:29:14.717Z,14.70
2023-04-18T19:31:45.811Z,14.60
2023-04-18T19:34:15.087Z,14.70
2023-04-18T19:36:44.062Z,14.70
2023-04-18T19:39:13.583Z,14.70
2023-04-18T19:41:56.564Z,14.70
2023-04-18T19:44:26.235Z,14.70
2023-04-18T19:46:56.730Z,14.70
2023-04-18T19:49:25.723Z,14.70
2023-04-18T19:51:55.165Z,14.70
2023-04-18T19:54:24.201Z,14.70
2023-04-18T19:56:53.358Z,14.70
2023-04-18T19:59:22.653Z,14.70
2023-04-18T20:01:58.393Z,14.70
2023-04-18T20:04:31.859Z,14.70
2023-04-18T20:07:02.416Z,14.70
2023-04-18T20:09:31.463Z,14.70
2023-04-18T20:12:03.613Z,14.70
2023-04-18T20:14:33.689Z,14.70
2023-04-18T20:17:04.483Z,14.70
2023-04-18T20:19:33.573Z,14.70
2023-04-18T20:22:02.941Z,14.60
2023-04-18T20:24:32.017Z,14.60
2023-04-18T20:27:01.701Z,14.60
2023-04-18T20:29:30.624Z,14.60
2023-04-18T20:31:59.879Z,14.60
2023-04-18T20:34:30.586Z,14.60
2023-04-18T20:37:00.251Z,14.50
2023-04-18T20:39:29.727Z,14.50
2023-04-18T20:42:00.896Z,14.50
2023-04-18T20:44:31.259Z,14.60
2023-04-18T20:47:00.470Z,14.50
2023-04-18T20:49:31.286Z,14.60
2023-04-18T20:52:00.604Z,14.50
2023-04-18T20:54:29.643Z,14.60
2023-04-18T20:56:58.636Z,14.60
2023-04-18T20:59:27.702Z,14.60
2023-04-18T21:01:56.734Z,14.60
2023-04-18T21:04:26.305Z,14.60
2023-04-18T21:06:56.756Z,14.60
2023-04-18T21:09:40.601Z,14.60
2023-04-18T21:12:19.967Z,14.60
2023-04-18T21:14:50.037Z,14.60
2023-04-18T21:17:19.738Z,14.50
2023-04-18T21:19:49.677Z,14.50
2023-04-18T21:22:20.801Z,14.50
2023-04-18T21:24:49.975Z,14.50
2023-04-18T21:27:19.471Z,14.40
2023-04-18T21:29:48.428Z,14.40
2023-04-18T21:32:17.532Z,14.40
2023-04-18T21:34:46.592Z,14.40
2023-04-18T21:37:20.836Z,14.40
2023-04-18T21:39:52.426Z,14.40
2023-04-18T21:42:22.335Z,14.30
2023-04-18T21:44:56.202Z,14.30
2023-04-18T21:47:26.239Z,14.30
2023-04-18T21:49:56.188Z,14.30
2023-04-18T21:52:25.592Z,14.20
2023-04-18T21:54:56.328Z,14.20
2023-04-18T21:57:25.421Z,14.20
2023-04-18T21:59:54.581Z,14.20
2023-04-18T22:02:24.324Z,14.10
2023-04-18T22:07:24.858Z,14.10
2023-04-18T22:09:58.284Z,14.00
2023-04-18T22:12:30.204Z,14.00
2023-04-18T22:15:00.147Z,14.00
2023-04-18T22:17:29.709Z,14.00
2023-04-18T22:20:01.604Z,13.90
2023-04-18T22:22:30.643Z,13.90
2023-04-18T22:25:01.029Z,13.90
2023-04-18T22:27:29.893Z,13.80
2023-04-18T22:29:58.890Z,13.80
2023-04-18T22:32:27.961Z,13.80
2023-04-18T22:34:57.030Z,13.80
2023-04-18T22:37:26.097Z,13.70
2023-04-18T22:39:55.156Z,13.70
2023-04-18T22:42:25.694Z,13.70
2023-04-18T22:44:54.743Z,13.70
2023-04-18T22:47:23.745Z,13.70
2023-04-18T22:49:52.733Z,13.70
2023-04-18T22:52:24.877Z,13.60
2023-04-18T22:54:53.932Z,13.60
2023-04-18T22:57:24.448Z,13.50
2023-04-18T22:59:53.639Z,13.50
2023-04-18T23:02:22.705Z,13.50
2023-04-18T23:04:53.493Z,13.50
2023-04-18T23:07:22.507Z,13.50
2023-04-18T23:09:51.446Z,13.50
2023-04-18T23:12:20.514Z,13.50
2023-04-18T23:14:51.182Z,13.50
2023-04-18T23:17:20.179Z,13.50
2023-04-18T23:19:49.103Z,13.50
2023-04-18T23:22:18.010Z,13.50
2023-04-18T23:24:47.282Z,13.50
2023-04-18T23:27:16.262Z,13.50
2023-04-18T23:29:45.293Z,13.50
2023-04-18T23:32:15.883Z,13.50
2023-04-18T23:34:46.369Z,13.50
2023-04-18T23:37:15.802Z,13.50
2023-04-18T23:39:44.714Z,13.50
2023-04-18T23:42:13.729Z,13.50
2023-04-18T23:44:42.790Z,13.50
2023-04-18T23:47:11.827Z,13.50
2023-04-18T23:49:42.412Z,13.50
2023-04-18T23:52:11.439Z,13.50
2023-04-18T23:54:40.427Z,13.40
2023-04-18T23:57:09.470Z,13.40
2023-04-18T23:59:38.466Z,13.40
